createdAt,value
2023-11-02T00:00:35.659Z,80.90
2023-11-02T00:03:09.025Z,80.94
2023-11-02T00:06:16.245Z,80.88
2023-11-02T00:08:52.033Z,80.87
2023-11-02T00:11:52.178Z,81.09
2023-11-02T00:14:20.276Z,81.02
2023-11-02T00:16:50.516Z,81.10
2023-11-02T00:19:36.511Z,80.82
2023-11-02T00:22:10.866Z,81.57
2023-11-02T00:24:45.841Z,82.05
2023-11-02T00:27:17.027Z,81.27
2023-11-02T00:29:43.701Z,81.24
2023-11-02T00:32:10.670Z,81.18
2023-11-02T00:34:40.959Z,81.32
2023-11-02T00:37:08.132Z,81.26
2023-11-02T00:39:34.965Z,81.35
2023-11-02T00:42:01.879Z,81.37
2023-11-02T00:44:28.780Z,81.21
2023-11-02T00:46:58.701Z,81.42
2023-11-02T00:49:32.879Z,81.38
2023-11-02T00:52:02.251Z,81.39
2023-11-02T00:54:50.532Z,81.58
2023-11-02T00:57:27.976Z,81.53
2023-11-02T00:59:57.070Z,81.41
2023-11-02T01:02:35.030Z,81.22
2023-11-02T01:05:04.430Z,81.37
2023-11-02T01:07:35.080Z,81.56
2023-11-02T01:10:06.378Z,81.29
2023-11-02T01:12:34.076Z,81.52
2023-11-02T01:15:06.721Z,81.10
2023-11-02T01:17:41.335Z,81.28
2023-11-02T01:20:08.243Z,81.12
2023-11-02T01:23:19.457Z,81.03
2023-11-02T01:25:50.466Z,80.97
2023-11-02T01:28:19.748Z,81.12
2023-11-02T01:30:49.900Z,80.80
2023-11-02T01:33:34.961Z,81.18
2023-11-02T01:36:06.078Z,80.94
2023-11-02T01:38:34.242Z,81.00
2023-11-02T01:41:21.422Z,81.01
2023-11-02T01:43:56.266Z,80.91
2023-11-02T01:46:29.819Z,80.78
2023-11-02T01:49:07.623Z,80.62
2023-11-02T01:51:55.941Z,80.45
2023-11-02T01:54:32.771Z,80.66
2023-11-02T01:57:07.231Z,80.38
2023-11-02T01:59:51.709Z,80.21
2023-11-02T02:02:38.751Z,80.58
2023-11-02T02:05:27.685Z,80.40
2023-11-02T02:08:09.133Z,80.45
2023-11-02T02:10:56.910Z,80.29
2023-11-02T02:13:29.854Z,80.53
2023-11-02T02:16:07.298Z,80.45
2023-11-02T02:18:42.919Z,80.37
2023-11-02T02:21:39.423Z,80.66
2023-11-02T02:24:26.077Z,80.16
2023-11-02T02:27:10.965Z,80.38
2023-11-02T02:29:52.939Z,80.50
2023-11-02T02:32:56.473Z,80.35
2023-11-02T02:35:38.421Z,80.25
2023-11-02T02:38:08.167Z,80.31
2023-11-02T02:40:40.504Z,80.16
2023-11-02T02:43:12.885Z,80.05
2023-11-02T02:45:40.801Z,80.12
2023-11-02T02:48:11.368Z,80.22
2023-11-02T02:50:40.257Z,80.43
2023-11-02T02:53:10.351Z,80.17
2023-11-02T02:55:39.973Z,80.14
2023-11-02T02:58:10.278Z,80.41
2023-11-02T03:00:37.473Z,80.44
2023-11-02T03:03:06.121Z,80.44
2023-11-02T03:05:36.711Z,80.38
2023-11-02T03:08:07.628Z,80.14
2023-11-02T03:10:40.260Z,80.55
2023-11-02T03:13:11.202Z,80.74
2023-11-02T03:15:42.692Z,80.55
2023-11-02T03:18:13.330Z,80.48
2023-11-02T03:20:46.555Z,80.71
2023-11-02T03:23:16.109Z,80.67
2023-11-02T03:25:49.155Z,80.57
2023-11-02T03:28:31.198Z,80.87
2023-11-02T03:31:37.380Z,80.61
2023-11-02T03:34:15.782Z,80.68
2023-11-02T03:36:48.508Z,80.76
2023-11-02T03:39:41.410Z,80.84
2023-11-02T03:42:16.991Z,80.71
2023-11-02T03:45:03.442Z,80.98
2023-11-02T03:48:01.339Z,81.18
2023-11-02T03:50:34.509Z,81.10
2023-11-02T03:53:20.394Z,81.04
2023-11-02T03:56:28.610Z,80.98
2023-11-02T03:59:12.777Z,81.15
2023-11-02T04:01:48.200Z,81.14
2023-11-02T04:04:27.299Z,80.97
2023-11-02T04:07:06.109Z,81.03
2023-11-02T04:09:42.626Z,80.88
2023-11-02T04:12:28.470Z,81.02
2023-11-02T04:15:00.065Z,81.19
2023-11-02T04:17:27.943Z,81.08
2023-11-02T04:19:57.860Z,81.20
2023-11-02T04:22:24.640Z,81.12
2023-11-02T04:24:58.633Z,81.23
2023-11-02T04:27:25.384Z,81.15
2023-11-02T04:29:52.040Z,81.07
2023-11-02T04:32:18.958Z,81.26
2023-11-02T04:34:45.608Z,81.16
2023-11-02T04:37:18.225Z,81.24
2023-11-02T04:39:45.852Z,80.98
2023-11-02T04:42:12.927Z,81.13
2023-11-02T04:44:40.056Z,81.22
2023-11-02T04:47:06.818Z,81.03
2023-11-02T04:49:36.385Z,80.86
2023-11-02T04:52:07.464Z,81.21
2023-11-02T04:54:37.197Z,81.05
2023-11-02T04:57:04.686Z,81.12
2023-11-02T04:59:44.897Z,81.32
2023-11-02T05:02:12.110Z,81.23
2023-11-02T05:04:39.281Z,81.22
2023-11-02T05:07:07.228Z,81.21
2023-11-02T05:09:34.090Z,81.24
2023-11-02T05:12:00.814Z,81.27
2023-11-02T05:14:29.669Z,81.18
2023-11-02T05:16:56.285Z,81.23
2023-11-02T05:19:27.428Z,81.30
2023-11-02T05:21:54.134Z,81.33
2023-11-02T05:24:20.819Z,81.14
2023-11-02T05:26:47.458Z,81.21
2023-11-02T05:29:14.203Z,81.17
2023-11-02T05:31:45.602Z,81.34
2023-11-02T05:34:12.411Z,81.17
2023-11-02T05:36:39.112Z,81.28
2023-11-02T05:39:08.146Z,81.30
2023-11-02T05:41:34.902Z,81.43
2023-11-02T05:44:03.798Z,81.11
2023-11-02T05:46:31.194Z,81.19
2023-11-02T05:49:00.347Z,81.36
2023-11-02T05:51:29.310Z,81.20
2023-11-02T05:53:56.164Z,81.22
2023-11-02T05:56:25.782Z,81.22
2023-11-02T05:58:58.347Z,81.20
2023-11-02T06:01:26.163Z,81.31
2023-11-02T06:03:55.528Z,81.34
2023-11-02T06:06:22.263Z,81.48
2023-11-02T06:08:48.913Z,81.15
2023-11-02T06:11:18.188Z,81.18
2023-11-02T06:13:44.867Z,81.28
2023-11-02T06:16:12.149Z,81.25
2023-11-02T06:18:38.864Z,81.40
2023-11-02T06:21:10.956Z,81.31
2023-11-02T06:23:37.628Z,81.27
2023-11-02T06:26:04.851Z,81.10
2023-11-02T06:28:34.675Z,81.29
2023-11-02T06:31:02.000Z,81.29
2023-11-02T06:33:35.510Z,82.39
2023-11-02T06:36:02.381Z,82.83
2023-11-02T06:38:30.701Z,82.50
2023-11-02T06:40:57.730Z,82.41
2023-11-02T06:43:30.007Z,81.90
2023-11-02T06:45:59.473Z,81.84
2023-11-02T06:48:26.388Z,81.75
2023-11-02T06:50:53.052Z,81.74
2023-11-02T06:53:19.671Z,81.67
2023-11-02T06:55:46.382Z,81.35
2023-11-02T06:58:13.028Z,81.32
2023-11-02T07:00:43.263Z,81.42
2023-11-02T07:03:10.122Z,81.27
2023-11-02T07:05:36.973Z,81.12
2023-11-02T07:08:03.653Z,81.25
2023-11-02T07:10:32.092Z,81.25
2023-11-02T07:12:58.816Z,81.45
2023-11-02T07:15:25.945Z,81.12
2023-11-02T07:17:52.712Z,81.40
2023-11-02T07:20:19.388Z,81.59
2023-11-02T07:22:48.358Z,81.64
2023-11-02T07:25:15.084Z,81.30
2023-11-02T07:27:45.429Z,81.61
2023-11-02T07:30:16.385Z,81.53
2023-11-02T07:32:45.979Z,81.35
2023-11-02T07:35:15.097Z,81.34
2023-11-02T07:37:41.711Z,81.40
2023-11-02T07:40:11.219Z,81.59
2023-11-02T07:42:38.918Z,81.37
2023-11-02T07:45:08.369Z,81.42
2023-11-02T07:47:35.274Z,81.20
2023-11-02T07:50:01.925Z,81.08
2023-11-02T07:52:28.639Z,81.12
2023-11-02T07:54:55.243Z,81.27
2023-11-02T07:57:24.351Z,81.04
2023-11-02T07:59:56.371Z,81.21
2023-11-02T08:02:23.013Z,80.98
2023-11-02T08:04:49.707Z,80.70
2023-11-02T08:07:18.972Z,80.79
2023-11-02T08:09:45.632Z,80.65
2023-11-02T08:12:17.830Z,80.62
2023-11-02T08:14:44.980Z,80.47
2023-11-02T08:17:13.461Z,80.71
2023-11-02T08:19:40.177Z,80.62
2023-11-02T08:22:06.853Z,80.66
2023-11-02T08:24:33.593Z,80.42
2023-11-02T08:27:00.243Z,80.54
2023-11-02T08:29:26.907Z,80.42
2023-11-02T08:31:55.963Z,80.29
2023-11-02T08:34:23.506Z,80.58
2023-11-02T08:36:50.765Z,80.41
2023-11-02T08:39:18.740Z,80.33
2023-11-02T08:41:45.368Z,80.13
2023-11-02T08:44:12.383Z,80.00
2023-11-02T08:46:40.456Z,80.08
2023-11-02T08:49:07.364Z,80.28
2023-11-02T08:51:34.434Z,80.33
2023-11-02T08:54:03.956Z,80.19
2023-11-02T08:56:30.766Z,80.36
2023-11-02T08:59:02.326Z,80.37
2023-11-02T09:01:30.031Z,80.12
2023-11-02T09:03:58.384Z,80.18
2023-11-02T09:06:28.277Z,79.98
2023-11-02T09:08:58.575Z,80.21
2023-11-02T09:11:31.086Z,80.62
2023-11-02T09:14:02.405Z,81.14
2023-11-02T09:16:32.330Z,81.45
2023-11-02T09:19:01.959Z,81.42
2023-11-02T09:21:30.642Z,81.56
2023-11-02T09:23:57.713Z,82.01
2023-11-02T09:26:24.359Z,81.95
2023-11-02T09:28:51.140Z,82.13
2023-11-02T09:31:23.573Z,81.85
2023-11-02T09:33:52.770Z,81.56
2023-11-02T09:36:22.545Z,81.71
2023-11-02T09:38:49.646Z,81.67
2023-11-02T09:41:16.331Z,81.66
2023-11-02T09:43:43.118Z,81.59
2023-11-02T09:46:14.092Z,81.78
2023-11-02T09:48:41.572Z,81.95
2023-11-02T09:51:09.570Z,81.86
2023-11-02T09:53:36.256Z,81.72
2023-11-02T09:56:05.383Z,81.80
2023-11-02T09:58:33.443Z,82.12
2023-11-02T10:01:03.885Z,81.98
2023-11-02T10:03:30.655Z,82.01
2023-11-02T10:05:58.369Z,82.13
2023-11-02T10:08:25.542Z,81.87
2023-11-02T10:11:10.427Z,81.64
2023-11-02T10:13:39.280Z,82.21
2023-11-02T10:16:06.412Z,82.15
2023-11-02T10:18:33.462Z,82.26
2023-11-02T10:21:09.713Z,82.13
2023-11-02T10:23:56.958Z,81.92
2023-11-02T10:26:30.142Z,82.23
2023-11-02T10:29:00.168Z,82.00
2023-11-02T10:31:31.704Z,81.63
2023-11-02T10:34:04.401Z,81.77
2023-11-02T10:36:31.295Z,81.57
2023-11-02T10:39:01.955Z,81.75
2023-11-02T10:41:29.877Z,81.80
2023-11-02T10:43:57.580Z,81.95
2023-11-02T10:46:29.045Z,81.53
2023-11-02T10:49:00.521Z,81.51
2023-11-02T10:51:31.015Z,81.30
2023-11-02T10:54:20.309Z,81.28
2023-11-02T10:56:54.183Z,81.41
2023-11-02T10:59:22.319Z,81.12
2023-11-02T11:01:51.897Z,81.12
2023-11-02T11:04:20.380Z,81.30
2023-11-02T11:06:50.045Z,80.99
2023-11-02T11:09:17.555Z,81.22
2023-11-02T11:11:44.445Z,81.10
2023-11-02T11:14:16.363Z,81.02
2023-11-02T11:16:45.262Z,81.15
2023-11-02T11:19:12.634Z,81.17
2023-11-02T11:21:43.606Z,80.94
2023-11-02T11:24:12.618Z,80.94
2023-11-02T11:26:49.550Z,80.90
2023-11-02T11:29:43.498Z,80.76
2023-11-02T11:32:38.894Z,81.32
2023-11-02T11:35:06.598Z,80.82
2023-11-02T11:38:07.054Z,80.32
2023-11-02T11:40:33.971Z,79.83
2023-11-02T11:43:13.343Z,79.73
2023-11-02T11:45:56.941Z,78.88
2023-11-02T11:48:33.468Z,79.13
2023-11-02T11:51:00.686Z,78.66
2023-11-02T11:53:27.877Z,78.00
2023-11-02T11:56:02.924Z,77.52
2023-11-02T11:58:38.746Z,77.33
2023-11-02T12:01:14.358Z,76.97
2023-11-02T12:03:41.042Z,76.62
2023-11-02T12:06:11.973Z,76.44
2023-11-02T12:08:48.306Z,75.88
2023-11-02T12:11:23.464Z,76.07
2023-11-02T12:13:53.886Z,75.84
2023-11-02T12:16:22.000Z,75.71
2023-11-02T12:18:53.057Z,75.66
2023-11-02T12:21:23.916Z,75.86
2023-11-02T12:23:56.872Z,75.83
2023-11-02T12:26:28.920Z,75.96
2023-11-02T12:29:00.132Z,76.14
2023-11-02T12:31:34.645Z,76.00
2023-11-02T12:34:04.430Z,75.90
2023-11-02T12:36:34.083Z,75.91
2023-11-02T12:39:01.177Z,75.98
2023-11-02T12:41:29.144Z,75.52
2023-11-02T12:44:08.909Z,75.78
2023-11-02T12:47:04.705Z,75.32
2023-11-02T12:49:36.399Z,75.44
2023-11-02T12:52:10.202Z,75.44
2023-11-02T12:54:40.833Z,75.65
2023-11-02T12:57:10.223Z,76.07
2023-11-02T12:59:47.574Z,75.67
2023-11-02T13:02:26.935Z,75.99
2023-11-02T13:04:57.297Z,76.45
2023-11-02T13:07:32.501Z,76.00
2023-11-02T13:10:00.746Z,76.45
2023-11-02T13:12:30.401Z,76.97
2023-11-02T13:14:57.470Z,77.15
2023-11-02T13:17:25.749Z,77.34
2023-11-02T13:19:55.264Z,77.43
2023-11-02T13:22:21.931Z,77.68
2023-11-02T13:24:49.665Z,77.77
2023-11-02T13:27:16.847Z,78.22
2023-11-02T13:29:47.418Z,77.84
2023-11-02T13:32:16.766Z,78.19
2023-11-02T13:34:43.714Z,78.37
2023-11-02T13:37:12.621Z,78.63
2023-11-02T13:39:39.498Z,78.67
2023-11-02T13:42:07.373Z,78.50
2023-11-02T13:44:36.830Z,78.65
2023-11-02T13:47:04.011Z,78.72
2023-11-02T13:49:33.499Z,78.87
2023-11-02T13:52:00.545Z,79.16
2023-11-02T13:54:27.288Z,79.20
2023-11-02T13:56:56.337Z,79.05
2023-11-02T13:59:28.081Z,79.36
2023-11-02T14:01:55.578Z,79.34
2023-11-02T14:04:26.995Z,79.45
2023-11-02T14:06:57.123Z,79.46
2023-11-02T14:09:24.169Z,79.24
2023-11-02T14:11:53.160Z,79.48
2023-11-02T14:14:19.961Z,79.33
2023-11-02T14:16:46.651Z,79.51
2023-11-02T14:19:13.819Z,79.72
2023-11-02T14:21:42.947Z,79.44
2023-11-02T14:24:12.603Z,79.59
2023-11-02T14:26:39.342Z,79.59
2023-11-02T14:29:06.031Z,79.83
2023-11-02T14:31:35.667Z,79.93
2023-11-02T14:34:03.945Z,81.52
2023-11-02T14:36:32.137Z,81.56
2023-11-02T14:39:02.018Z,81.27
2023-11-02T14:41:28.796Z,80.78
2023-11-02T14:43:56.734Z,80.69
2023-11-02T14:46:23.449Z,80.16
2023-11-02T14:48:50.247Z,80.56
2023-11-02T14:51:19.630Z,80.30
2023-11-02T14:53:50.784Z,80.33
2023-11-02T14:56:19.817Z,80.23
2023-11-02T14:58:49.663Z,80.20
2023-11-02T15:01:17.352Z,80.33
2023-11-02T15:03:44.271Z,79.99
2023-11-02T15:06:11.102Z,79.65
2023-11-02T15:08:40.510Z,79.60
2023-11-02T15:11:08.337Z,79.60
2023-11-02T15:13:38.142Z,79.20
2023-11-02T15:16:13.348Z,79.39
2023-11-02T15:18:43.764Z,79.64
2023-11-02T15:21:13.221Z,80.28
2023-11-02T15:23:42.909Z,80.49
2023-11-02T15:26:11.886Z,81.02
2023-11-02T15:28:38.644Z,80.83
2023-11-02T15:31:06.064Z,80.92
2023-11-02T15:33:35.113Z,81.35
2023-11-02T15:36:05.597Z,81.40
2023-11-02T15:38:32.421Z,81.48
2023-11-02T15:40:59.204Z,81.60
2023-11-02T15:43:30.089Z,81.63
2023-11-02T15:45:57.191Z,81.52
2023-11-02T15:48:23.995Z,81.71
2023-11-02T15:50:51.849Z,81.66
2023-11-02T15:53:19.571Z,81.54
2023-11-02T15:55:48.371Z,81.68
2023-11-02T15:58:15.089Z,81.61
2023-11-02T16:00:41.922Z,81.82
2023-11-02T16:03:11.221Z,81.75
2023-11-02T16:05:38.037Z,81.67
2023-11-02T16:08:05.135Z,81.68
2023-11-02T16:10:31.803Z,81.78
2023-11-02T16:13:00.634Z,81.71
2023-11-02T16:15:28.392Z,81.80
2023-11-02T16:17:55.052Z,81.84
2023-11-02T16:20:21.975Z,81.73
2023-11-02T16:22:50.865Z,82.65
2023-11-02T16:25:19.728Z,83.36
2023-11-02T16:27:47.307Z,82.75
2023-11-02T16:30:17.049Z,82.13
2023-11-02T16:32:48.578Z,81.15
2023-11-02T16:35:28.828Z,80.88
2023-11-02T16:38:06.158Z,80.22
2023-11-02T16:40:33.452Z,80.05
2023-11-02T16:43:05.012Z,80.20
2023-11-02T16:45:35.540Z,80.00
2023-11-02T16:48:02.263Z,80.59
2023-11-02T16:50:28.878Z,80.59
2023-11-02T16:52:55.938Z,80.62
2023-11-02T16:55:24.821Z,81.05
2023-11-02T16:57:54.071Z,81.07
2023-11-02T17:00:23.352Z,80.94
2023-11-02T17:02:52.643Z,80.97
2023-11-02T17:05:21.382Z,81.25
2023-11-02T17:07:49.923Z,81.18
2023-11-02T17:10:19.637Z,81.38
2023-11-02T17:12:53.647Z,81.28
2023-11-02T17:15:23.124Z,81.30
2023-11-02T17:17:49.794Z,81.36
2023-11-02T17:20:18.722Z,81.31
2023-11-02T17:22:45.391Z,81.45
2023-11-02T17:25:12.018Z,81.39
2023-11-02T17:27:43.195Z,81.28
2023-11-02T17:30:09.984Z,81.34
2023-11-02T17:32:43.335Z,81.35
2023-11-02T17:35:10.079Z,81.28
2023-11-02T17:37:38.858Z,81.37
2023-11-02T17:40:14.910Z,81.32
2023-11-02T17:42:44.675Z,81.36
2023-11-02T17:45:11.601Z,81.28
2023-11-02T17:47:41.009Z,81.26
2023-11-02T17:50:10.438Z,81.28
2023-11-02T17:52:39.574Z,81.65
2023-11-02T17:55:09.740Z,81.52
2023-11-02T17:57:38.625Z,81.52
2023-11-02T18:00:08.244Z,81.53
2023-11-02T18:02:37.519Z,81.46
2023-11-02T18:05:05.800Z,81.53
2023-11-02T18:07:32.686Z,81.39
2023-11-02T18:10:00.436Z,81.50
2023-11-02T18:12:27.721Z,81.60
2023-11-02T18:14:58.971Z,81.44
2023-11-02T18:17:25.932Z,81.51
2023-11-02T18:19:54.959Z,81.62
2023-11-02T18:22:21.596Z,81.54
2023-11-02T18:24:53.033Z,81.52
2023-11-02T18:27:19.719Z,81.61
2023-11-02T18:29:46.340Z,81.90
2023-11-02T18:32:14.309Z,81.53
2023-11-02T18:34:44.175Z,81.42
2023-11-02T18:37:13.149Z,81.38
2023-11-02T18:39:42.330Z,81.59
2023-11-02T18:42:11.295Z,81.45
2023-11-02T18:44:38.115Z,84.28
2023-11-02T18:47:07.833Z,85.09
2023-11-02T18:49:40.137Z,84.26
2023-11-02T18:52:10.036Z,83.74
2023-11-02T18:54:39.209Z,83.36
2023-11-02T18:57:06.172Z,82.73
2023-11-02T18:59:33.404Z,82.76
2023-11-02T19:02:02.278Z,82.65
2023-11-02T19:04:29.385Z,82.01
2023-11-02T19:06:56.123Z,82.06
2023-11-02T19:09:23.966Z,81.95
2023-11-02T19:11:50.869Z,81.88
2023-11-02T19:14:20.208Z,81.78
2023-11-02T19:16:48.089Z,81.60
2023-11-02T19:19:14.910Z,81.62
2023-11-02T19:21:45.598Z,81.44
2023-11-02T19:24:14.372Z,81.35
2023-11-02T19:26:45.232Z,81.21
2023-11-02T19:29:12.491Z,81.19
2023-11-02T19:31:53.235Z,81.25
2023-11-02T19:34:25.272Z,81.53
2023-11-02T19:36:55.610Z,81.71
2023-11-02T19:39:22.530Z,82.17
2023-11-02T19:41:49.908Z,82.56
2023-11-02T19:44:16.973Z,82.82
2023-11-02T19:46:46.345Z,82.99
2023-11-02T19:49:13.948Z,83.05
2023-11-02T19:51:43.961Z,83.21
2023-11-02T19:54:11.578Z,83.50
2023-11-02T19:56:46.470Z,83.46
2023-11-02T19:59:17.925Z,83.62
2023-11-02T20:01:44.634Z,83.63
2023-11-02T20:04:12.537Z,83.68
2023-11-02T20:06:39.785Z,83.85
2023-11-02T20:09:07.621Z,83.78
2023-11-02T20:11:34.683Z,83.77
2023-11-02T20:14:01.488Z,83.63
2023-11-02T20:16:28.114Z,83.77
2023-11-02T20:18:54.875Z,83.81
2023-11-02T20:21:27.728Z,84.09
2023-11-02T20:23:54.516Z,83.93
2023-11-02T20:26:21.947Z,83.99
2023-11-02T20:28:48.864Z,83.92
2023-11-02T20:31:15.910Z,83.79
2023-11-02T20:33:43.690Z,83.86
2023-11-02T20:36:13.003Z,83.71
2023-11-02T20:38:41.965Z,83.94
2023-11-02T20:41:08.886Z,83.49
2023-11-02T20:43:38.435Z,83.82
2023-11-02T20:46:07.400Z,83.74
2023-11-02T20:48:37.579Z,83.63
2023-11-02T20:51:08.926Z,83.53
2023-11-02T20:53:38.393Z,83.48
2023-11-02T20:56:05.228Z,83.74
2023-11-02T20:58:31.851Z,83.57
2023-11-02T21:01:00.732Z,83.55
2023-11-02T21:03:29.368Z,83.79
2023-11-02T21:05:58.343Z,83.75
2023-11-02T21:08:25.168Z,83.58
2023-11-02T21:10:51.844Z,83.64
2023-11-02T21:13:19.208Z,83.41
2023-11-02T21:15:46.613Z,83.65
2023-11-02T21:18:15.686Z,83.39
2023-11-02T21:20:44.596Z,83.29
2023-11-02T21:23:11.506Z,83.81
2023-11-02T21:25:40.348Z,83.62
2023-11-02T21:28:07.102Z,83.20
2023-11-02T21:30:36.564Z,83.63
2023-11-02T21:33:06.348Z,83.09
2023-11-02T21:35:33.256Z,83.25
2023-11-02T21:38:02.581Z,83.29
2023-11-02T21:40:31.578Z,83.15
2023-11-02T21:42:58.678Z,83.37
2023-11-02T21:45:26.299Z,82.95
2023-11-02T21:47:55.458Z,83.48
2023-11-02T21:50:22.111Z,83.38
2023-11-02T21:52:48.714Z,83.03
2023-11-02T21:55:18.410Z,82.96
2023-11-02T21:57:45.481Z,83.08
2023-11-02T22:00:12.756Z,83.12
2023-11-02T22:02:39.515Z,83.11
2023-11-02T22:05:09.593Z,83.15
2023-11-02T22:07:37.233Z,82.54
2023-11-02T22:10:04.578Z,83.06
2023-11-02T22:12:33.520Z,82.89
2023-11-02T22:15:00.172Z,82.89
2023-11-02T22:17:27.069Z,82.97
2023-11-02T22:19:55.928Z,82.97
2023-11-02T22:22:23.194Z,82.71
2023-11-02T22:24:49.845Z,82.77
2023-11-02T22:27:16.501Z,82.61
2023-11-02T22:29:43.175Z,82.73
2023-11-02T22:32:09.879Z,82.88
2023-11-02T22:34:36.931Z,82.55
2023-11-02T22:37:03.958Z,82.71
2023-11-02T22:39:30.778Z,82.62
2023-11-02T22:41:57.882Z,82.88
2023-11-02T22:44:29.265Z,82.88
2023-11-02T22:46:58.949Z,82.79
2023-11-02T22:49:25.582Z,82.82
2023-11-02T22:51:52.580Z,82.66
2023-11-02T22:54:19.292Z,82.92
2023-11-02T22:56:51.467Z,82.63
2023-11-02T22:59:20.430Z,82.64
2023-11-02T23:01:47.115Z,82.56
2023-11-02T23:04:16.158Z,82.18
2023-11-02T23:06:42.872Z,82.34
2023-11-02T23:09:12.110Z,82.62
2023-11-02T23:11:41.053Z,82.38
2023-11-02T23:14:07.815Z,82.39
2023-11-02T23:16:34.463Z,82.60
2023-11-02T23:19:05.870Z,82.54
2023-11-02T23:21:35.013Z,82.38
2023-11-02T23:24:01.681Z,82.12
2023-11-02T23:26:28.485Z,82.79
2023-11-02T23:29:07.909Z,83.96
2023-11-02T23:31:39.427Z,83.21
2023-11-02T23:34:07.230Z,83.06
2023-11-02T23:36:36.219Z,82.75
2023-11-02T23:39:05.540Z,82.85
2023-11-02T23:41:41.804Z,82.89
2023-11-02T23:44:10.895Z,83.04
2023-11-02T23:46:37.502Z,82.93
2023-11-02T23:49:05.553Z,82.83
2023-11-02T23:51:34.683Z,82.79
2023-11-02T23:54:01.353Z,82.87
2023-11-02T23:56:34.850Z,83.03
2023-11-02T23:59:02.255Z,83.11
